Kihei, HI

3:35 PM HST on April 27, 2015 (GMT -1000)
Lanai City | | Change Station
CLOSE
Current Station
Airport
Location: Lanai City,
Elevation: 1309 ft
Nearby Weather Stations
Active Advisory: High Surf Advisory Active Notice: Record Report

Elev 1309 ft 20.79 °N, 156.95 °W | Updated 37 minutes ago

Overcast
Overcast
72 °F
Feels Like 72 °F
N
31
Wind Variable Wind from NE
Gusts 44 mph

Today
High -- | Low -- °F
--% Chance of Precip.
Yesterday
High -- | Low -- °F
Precip. -- in
5:58 AM 6:48 PM
Waxing Gibbous, 69% visible
Pressure 29.98 in
Visibility 10.0 miles
Clouds Few 400 ft
Scattered Clouds 800 ft
Overcast 8000 ft
Dew Point 65 °F
Humidity 78%
Rainfall 0.09 in
Snow Depth Not available.
UV 3 out of 12
Pollen Not available.
Air Quality Not available.
Flu Activity Regional
METAR PHNY 280058Z AUTO 04027G38KT 10SM FEW004 SCT008 OVC080 22/18 A3003 RMK AO2 PK WND 03038/0049 SLP151 T02220183

More Conditions Fewer Conditions

Pressure 29.98 in
Visibility 10.0 miles
Clouds Few 400 ft
Scattered Clouds 800 ft
Overcast 8000 ft
Dew Point 65 °F
Humidity 78%
Rainfall 0.09 in
Snow Depth Not available.
UV 3 out of 12
Pollen Not available.
Air Quality Not available.
Flu Activity Regional
METAR PHNY 280058Z AUTO 04027G38KT 10SM FEW004 SCT008 OVC080 22/18 A3003 RMK AO2 PK WND 03038/0049 SLP151 T02220183

More Conditions Fewer Conditions

10-Day Weather Forecast

Almanac

Astronomy

Apr. 27, 2015 Rise Set
Actual Time
Civil Twilight
Nautical Twilight
Astronomical Twilight
Moon
Length of Visible Light
Length of Day
Tomorrow will be .
, % of the Moon is Illuminated

Today's Extremes

State Highs State Lows

Community

WunderPhotos

Upload Photos

1,817,508 photos uploaded!

WunderBlogs® & News

Nearby

Air Quality

  Air Quality AQ Index Pollutant
Not available.

Snow Depth

Station Depth Elevation

Earthquake Activity

City Distance Mag. Time & Date
Minimum magnitude displayed is 2.5.

Coastal Water Temperatures

Place Temperature

Stations

Nearby Weather Stations

Station Location Temp. Windchill Dew Point Humidity Wind Precip. Elev Updated Type
                   
High Surf Advisory
Statement as of 3:30 AM HST on April 27, 2015

... High surf advisory now in effect until 6 PM HST Tuesday...

The high surf advisory is now in effect until 6 PM HST Tuesday.

* Surf... rising to 10 to 15 feet along north facing shores and 6
to 9 feet along east facing shores.

* Timing... until 6 PM HST Tuesday.

* Impacts... moderate... expect strong breaking waves... shore
break... and strong longshore and rip currents making swimming
difficult and dangerous.

Precautionary/preparedness actions...

Beachgoers... swimmers... and surfers should heed all advice given
by ocean safety officials and exercise caution. Boaters should
expect recreational surfers and body boarders utilizing Harbor
channels to access surfing areas.